sensor_id;sensor_type;location;lat;lon;timestamp;P1;durP1;ratioP1;P2;durP2;ratioP2
15944;SDS011;30172;48.832;8.732;2023-05-10T00:01:39;0.50;;;0.50;;
15944;SDS011;30172;48.832;8.732;2023-05-10T00:04:07;0.37;;;0.37;;
15944;SDS011;30172;48.832;8.732;2023-05-10T00:06:33;0.40;;;0.40;;
15944;SDS011;30172;48.832;8.732;2023-05-10T00:09:01;2.97;;;0.60;;
15944;SDS011;30172;48.832;8.732;2023-05-10T00:11:26;0.40;;;0.40;;
15944;SDS011;30172;48.832;8.732;2023-05-10T00:13:54;0.40;;;0.40;;
15944;SDS011;30172;48.832;8.732;2023-05-10T00:16:20;0.97;;;0.50;;
15944;SDS011;30172;48.832;8.732;2023-05-10T00:18:48;0.77;;;0.50;;
15944;SDS011;30172;48.832;8.732;2023-05-10T00:21:16;0.50;;;0.50;;
15944;SDS011;30172;48.832;8.732;2023-05-10T00:23:41;0.50;;;0.40;;
15944;SDS011;30172;48.832;8.732;2023-05-10T00:26:07;1.70;;;0.50;;
15944;SDS011;30172;48.832;8.732;2023-05-10T00:28:34;1.30;;;0.60;;
15944;SDS011;30172;48.832;8.732;2023-05-10T00:31:00;0.60;;;0.60;;
15944;SDS011;30172;48.832;8.732;2023-05-10T00:33:27;0.70;;;0.70;;
15944;SDS011;30172;48.832;8.732;2023-05-10T00:35:58;0.60;;;0.60;;
15944;SDS011;30172;48.832;8.732;2023-05-10T00:38:25;0.60;;;0.60;;
15944;SDS011;30172;48.832;8.732;2023-05-10T00:40:51;0.93;;;0.70;;
15944;SDS011;30172;48.832;8.732;2023-05-10T00:43:19;0.60;;;0.60;;
15944;SDS011;30172;48.832;8.732;2023-05-10T00:45:44;0.83;;;0.83;;
15944;SDS011;30172;48.832;8.732;2023-05-10T00:48:18;1.80;;;1.70;;
15944;SDS011;30172;48.832;8.732;2023-05-10T00:50:45;0.70;;;0.70;;
15944;SDS011;30172;48.832;8.732;2023-05-10T00:53:25;0.90;;;0.90;;
15944;SDS011;30172;48.832;8.732;2023-05-10T00:55:55;0.90;;;0.70;;
15944;SDS011;30172;48.832;8.732;2023-05-10T00:58:27;1.00;;;0.80;;
15944;SDS011;30172;48.832;8.732;2023-05-10T01:01:00;1.17;;;0.77;;
15944;SDS011;30172;48.832;8.732;2023-05-10T01:03:41;2.70;;;1.13;;
15944;SDS011;30172;48.832;8.732;2023-05-10T01:06:26;2.27;;;1.17;;
15944;SDS011;30172;48.832;8.732;2023-05-10T01:08:57;0.80;;;0.80;;
15944;SDS011;30172;48.832;8.732;2023-05-10T01:11:41;1.00;;;1.00;;
15944;SDS011;30172;48.832;8.732;2023-05-10T01:14:19;0.97;;;0.97;;
15944;SDS011;30172;48.832;8.732;2023-05-10T01:16:53;2.90;;;1.07;;
15944;SDS011;30172;48.832;8.732;2023-05-10T01:19:30;4.07;;;1.00;;
15944;SDS011;30172;48.832;8.732;2023-05-10T01:33:38;2.00;;;1.20;;
15944;SDS011;30172;48.832;8.732;2023-05-10T01:36:38;2.33;;;1.40;;
15944;SDS011;30172;48.832;8.732;2023-05-10T01:39:11;1.30;;;1.20;;
15944;SDS011;30172;48.832;8.732;2023-05-10T01:44:38;2.00;;;1.70;;
15944;SDS011;30172;48.832;8.732;2023-05-10T01:47:35;1.93;;;1.30;;
15944;SDS011;30172;48.832;8.732;2023-05-10T01:50:09;2.73;;;1.60;;
15944;SDS011;30172;48.832;8.732;2023-05-10T01:52:38;2.33;;;1.50;;
15944;SDS011;30172;48.832;8.732;2023-05-10T01:55:11;2.00;;;1.90;;
15944;SDS011;30172;48.832;8.732;2023-05-10T01:57:43;2.90;;;2.10;;
15944;SDS011;30172;48.832;8.732;2023-05-10T02:00:12;2.33;;;2.03;;
15944;SDS011;30172;48.832;8.732;2023-05-10T02:02:39;2.20;;;2.10;;
15944;SDS011;30172;48.832;8.732;2023-05-10T02:05:10;2.57;;;2.37;;
15944;SDS011;30172;48.832;8.732;2023-05-10T02:07:37;2.00;;;1.90;;
15944;SDS011;30172;48.832;8.732;2023-05-10T02:10:10;2.20;;;2.00;;
15944;SDS011;30172;48.832;8.732;2023-05-10T02:12:46;2.17;;;1.97;;
15944;SDS011;30172;48.832;8.732;2023-05-10T02:15:21;3.00;;;2.37;;
15944;SDS011;30172;48.832;8.732;2023-05-10T02:17:48;2.60;;;2.40;;
15944;SDS011;30172;48.832;8.732;2023-05-10T02:20:14;2.23;;;2.13;;
15944;SDS011;30172;48.832;8.732;2023-05-10T02:22:44;2.50;;;2.37;;
15944;SDS011;30172;48.832;8.732;2023-05-10T02:25:19;2.73;;;2.47;;
15944;SDS011;30172;48.832;8.732;2023-05-10T02:27:45;2.70;;;2.50;;
15944;SDS011;30172;48.832;8.732;2023-05-10T02:30:14;3.33;;;2.43;;
15944;SDS011;30172;48.832;8.732;2023-05-10T02:32:39;4.67;;;2.63;;
15944;SDS011;30172;48.832;8.732;2023-05-10T02:35:08;2.47;;;2.33;;
15944;SDS011;30172;48.832;8.732;2023-05-10T02:37:42;2.93;;;2.73;;
15944;SDS011;30172;48.832;8.732;2023-05-10T02:40:09;2.80;;;2.60;;
15944;SDS011;30172;48.832;8.732;2023-05-10T02:42:37;3.20;;;2.63;;
15944;SDS011;30172;48.832;8.732;2023-05-10T02:45:10;2.70;;;2.50;;
15944;SDS011;30172;48.832;8.732;2023-05-10T02:47:37;3.20;;;2.30;;
15944;SDS011;30172;48.832;8.732;2023-05-10T02:50:05;3.70;;;2.70;;
15944;SDS011;30172;48.832;8.732;2023-05-10T02:52:36;3.13;;;2.60;;
15944;SDS011;30172;48.832;8.732;2023-05-10T02:55:08;3.80;;;2.70;;
15944;SDS011;30172;48.832;8.732;2023-05-10T02:57:34;3.43;;;2.50;;
15944;SDS011;30172;48.832;8.732;2023-05-10T03:00:07;2.37;;;2.27;;
15944;SDS011;30172;48.832;8.732;2023-05-10T03:02:35;2.30;;;2.20;;
15944;SDS011;30172;48.832;8.732;2023-05-10T03:05:01;3.30;;;2.70;;
15944;SDS011;30172;48.832;8.732;2023-05-10T03:07:27;2.70;;;2.50;;
15944;SDS011;30172;48.832;8.732;2023-05-10T03:09:53;3.60;;;2.10;;
15944;SDS011;30172;48.832;8.732;2023-05-10T03:15:13;2.47;;;2.20;;
15944;SDS011;30172;48.832;8.732;2023-05-10T03:20:50;2.10;;;1.90;;
15944;SDS011;30172;48.832;8.732;2023-05-10T03:25:47;1.93;;;1.63;;
15944;SDS011;30172;48.832;8.732;2023-05-10T03:28:13;1.97;;;1.70;;
15944;SDS011;30172;48.832;8.732;2023-05-10T03:30:45;1.90;;;1.60;;
15944;SDS011;30172;48.832;8.732;2023-05-10T03:33:11;1.73;;;1.50;;
15944;SDS011;30172;48.832;8.732;2023-05-10T03:35:38;1.73;;;1.63;;
15944;SDS011;30172;48.832;8.732;2023-05-10T03:38:03;2.10;;;1.70;;
15944;SDS011;30172;48.832;8.732;2023-05-10T03:40:31;1.93;;;1.73;;
15944;SDS011;30172;48.832;8.732;2023-05-10T03:43:06;3.37;;;1.90;;
15944;SDS011;30172;48.832;8.732;2023-05-10T03:45:34;2.20;;;2.00;;
15944;SDS011;30172;48.832;8.732;2023-05-10T03:47:59;3.80;;;2.00;;
15944;SDS011;30172;48.832;8.732;2023-05-10T03:50:25;1.77;;;1.60;;
15944;SDS011;30172;48.832;8.732;2023-05-10T03:52:51;3.03;;;1.90;;
15944;SDS011;30172;48.832;8.732;2023-05-10T03:55:16;2.27;;;1.67;;
15944;SDS011;30172;48.832;8.732;2023-05-10T03:57:41;2.10;;;1.90;;
15944;SDS011;30172;48.832;8.732;2023-05-10T04:00:07;1.80;;;1.70;;
15944;SDS011;30172;48.832;8.732;2023-05-10T04:02:33;1.83;;;1.70;;
15944;SDS011;30172;48.832;8.732;2023-05-10T04:04:58;2.00;;;1.83;;
15944;SDS011;30172;48.832;8.732;2023-05-10T04:07:24;4.80;;;1.80;;
15944;SDS011;30172;48.832;8.732;2023-05-10T04:09:49;2.20;;;2.00;;
15944;SDS011;30172;48.832;8.732;2023-05-10T04:12:17;3.37;;;1.77;;
15944;SDS011;30172;48.832;8.732;2023-05-10T04:14:42;3.33;;;2.37;;
15944;SDS011;30172;48.832;8.732;2023-05-10T04:17:07;3.37;;;2.43;;
15944;SDS011;30172;48.832;8.732;2023-05-10T04:19:38;2.37;;;1.87;;
15944;SDS011;30172;48.832;8.732;2023-05-10T04:22:03;2.07;;;1.87;;
15944;SDS011;30172;48.832;8.732;2023-05-10T04:24:32;3.17;;;2.17;;
15944;SDS011;30172;48.832;8.732;2023-05-10T04:27:03;3.00;;;2.20;;
15944;SDS011;30172;48.832;8.732;2023-05-10T04:29:28;2.23;;;2.03;;
15944;SDS011;30172;48.832;8.732;2023-05-10T04:31:54;2.13;;;1.90;;
15944;SDS011;30172;48.832;8.732;2023-05-10T04:34:30;2.40;;;2.20;;
15944;SDS011;30172;48.832;8.732;2023-05-10T04:37:03;4.23;;;2.00;;
15944;SDS011;30172;48.832;8.732;2023-05-10T04:39:32;3.40;;;2.30;;
15944;SDS011;30172;48.832;8.732;2023-05-10T04:42:04;2.50;;;2.30;;
15944;SDS011;30172;48.832;8.732;2023-05-10T04:44:32;3.63;;;2.63;;
15944;SDS011;30172;48.832;8.732;2023-05-10T04:47:00;2.57;;;2.37;;
15944;SDS011;30172;48.832;8.732;2023-05-10T04:52:33;3.13;;;2.40;;
15944;SDS011;30172;48.832;8.732;2023-05-10T04:58:31;4.60;;;2.73;;
15944;SDS011;30172;48.832;8.732;2023-05-10T05:01:24;3.20;;;2.50;;
15944;SDS011;30172;48.832;8.732;2023-05-10T05:04:09;4.10;;;2.90;;
15944;SDS011;30172;48.832;8.732;2023-05-10T05:09:47;3.90;;;2.70;;
15944;SDS011;30172;48.832;8.732;2023-05-10T05:13:08;4.07;;;2.30;;
15944;SDS011;30172;48.832;8.732;2023-05-10T05:19:18;6.70;;;3.10;;
15944;SDS011;30172;48.832;8.732;2023-05-10T05:22:02;4.23;;;2.73;;
15944;SDS011;30172;48.832;8.732;2023-05-10T05:24:57;3.80;;;3.00;;
15944;SDS011;30172;48.832;8.732;2023-05-10T05:38:07;3.20;;;2.70;;
15944;SDS011;30172;48.832;8.732;2023-05-10T05:40:58;6.70;;;2.67;;
15944;SDS011;30172;48.832;8.732;2023-05-10T05:43:23;2.70;;;2.50;;
15944;SDS011;30172;48.832;8.732;2023-05-10T05:45:52;4.53;;;2.43;;
15944;SDS011;30172;48.832;8.732;2023-05-10T05:48:25;2.53;;;2.33;;
15944;SDS011;30172;48.832;8.732;2023-05-10T05:51:06;2.83;;;2.20;;
15944;SDS011;30172;48.832;8.732;2023-05-10T05:53:31;3.20;;;2.30;;
15944;SDS011;30172;48.832;8.732;2023-05-10T05:55:57;3.93;;;2.10;;
15944;SDS011;30172;48.832;8.732;2023-05-10T05:58:23;2.40;;;2.20;;
15944;SDS011;30172;48.832;8.732;2023-05-10T06:00:54;3.10;;;2.10;;
15944;SDS011;30172;48.832;8.732;2023-05-10T06:03:22;1.70;;;1.60;;
15944;SDS011;30172;48.832;8.732;2023-05-10T06:05:48;2.70;;;1.80;;
15944;SDS011;30172;48.832;8.732;2023-05-10T06:08:13;1.50;;;1.40;;
15944;SDS011;30172;48.832;8.732;2023-05-10T06:10:41;1.50;;;1.37;;
15944;SDS011;30172;48.832;8.732;2023-05-10T06:13:06;1.20;;;1.20;;
15944;SDS011;30172;48.832;8.732;2023-05-10T06:15:32;1.50;;;1.40;;
15944;SDS011;30172;48.832;8.732;2023-05-10T06:17:57;2.20;;;1.43;;
15944;SDS011;30172;48.832;8.732;2023-05-10T06:20:23;2.57;;;1.50;;
15944;SDS011;30172;48.832;8.732;2023-05-10T06:22:48;1.60;;;1.50;;
15944;SDS011;30172;48.832;8.732;2023-05-10T06:25:13;1.20;;;1.10;;
15944;SDS011;30172;48.832;8.732;2023-05-10T06:27:39;3.80;;;1.03;;
15944;SDS011;30172;48.832;8.732;2023-05-10T06:30:05;2.93;;;1.47;;
15944;SDS011;30172;48.832;8.732;2023-05-10T06:32:31;1.90;;;1.03;;
15944;SDS011;30172;48.832;8.732;2023-05-10T06:34:56;2.73;;;1.77;;
15944;SDS011;30172;48.832;8.732;2023-05-10T06:37:22;2.00;;;1.00;;
15944;SDS011;30172;48.832;8.732;2023-05-10T06:39:47;1.10;;;1.10;;
15944;SDS011;30172;48.832;8.732;2023-05-10T06:42:18;1.13;;;1.03;;
15944;SDS011;30172;48.832;8.732;2023-05-10T06:44:43;1.10;;;1.00;;
15944;SDS011;30172;48.832;8.732;2023-05-10T06:47:08;1.87;;;0.80;;
15944;SDS011;30172;48.832;8.732;2023-05-10T06:49:34;1.33;;;1.10;;
15944;SDS011;30172;48.832;8.732;2023-05-10T06:51:59;2.13;;;0.90;;
15944;SDS011;30172;48.832;8.732;2023-05-10T06:54:27;1.23;;;1.07;;
15944;SDS011;30172;48.832;8.732;2023-05-10T06:56:52;1.85;;;0.80;;
15944;SDS011;30172;48.832;8.732;2023-05-10T06:59:24;0.80;;;0.80;;
15944;SDS011;30172;48.832;8.732;2023-05-10T07:01:50;1.00;;;0.80;;
15944;SDS011;30172;48.832;8.732;2023-05-10T07:04:15;0.90;;;0.90;;
15944;SDS011;30172;48.832;8.732;2023-05-10T07:06:40;1.50;;;0.80;;
15944;SDS011;30172;48.832;8.732;2023-05-10T07:09:05;0.70;;;0.70;;
15944;SDS011;30172;48.832;8.732;2023-05-10T07:11:32;5.27;;;0.87;;
15944;SDS011;30172;48.832;8.732;2023-05-10T07:14:02;0.80;;;0.80;;
15944;SDS011;30172;48.832;8.732;2023-05-10T07:16:36;0.70;;;0.70;;
15944;SDS011;30172;48.832;8.732;2023-05-10T07:19:02;0.80;;;0.80;;
15944;SDS011;30172;48.832;8.732;2023-05-10T07:21:27;1.03;;;0.70;;
15944;SDS011;30172;48.832;8.732;2023-05-10T07:23:53;1.33;;;0.80;;
15944;SDS011;30172;48.832;8.732;2023-05-10T07:26:19;2.00;;;0.63;;
15944;SDS011;30172;48.832;8.732;2023-05-10T07:28:45;1.10;;;0.80;;
15944;SDS011;30172;48.832;8.732;2023-05-10T07:31:11;1.63;;;0.70;;
15944;SDS011;30172;48.832;8.732;2023-05-10T07:33:39;0.70;;;0.67;;
15944;SDS011;30172;48.832;8.732;2023-05-10T07:36:04;2.17;;;0.60;;
15944;SDS011;30172;48.832;8.732;2023-05-10T07:38:35;0.93;;;0.70;;
15944;SDS011;30172;48.832;8.732;2023-05-10T07:41:01;0.70;;;0.70;;
15944;SDS011;30172;48.832;8.732;2023-05-10T07:43:31;0.70;;;0.70;;
15944;SDS011;30172;48.832;8.732;2023-05-10T07:45:56;4.57;;;0.80;;
15944;SDS011;30172;48.832;8.732;2023-05-10T07:48:22;2.00;;;0.80;;
15944;SDS011;30172;48.832;8.732;2023-05-10T07:50:48;2.30;;;0.85;;
15944;SDS011;30172;48.832;8.732;2023-05-10T07:53:13;0.70;;;0.70;;
15944;SDS011;30172;48.832;8.732;2023-05-10T07:55:43;1.08;;;0.85;;
15944;SDS011;30172;48.832;8.732;2023-05-10T07:58:08;1.42;;;0.55;;
15944;SDS011;30172;48.832;8.732;2023-05-10T08:00:34;0.50;;;0.50;;
15944;SDS011;30172;48.832;8.732;2023-05-10T08:02:59;1.38;;;0.45;;
15944;SDS011;30172;48.832;8.732;2023-05-10T08:05:25;0.40;;;0.40;;
15944;SDS011;30172;48.832;8.732;2023-05-10T08:07:50;1.77;;;0.50;;
15944;SDS011;30172;48.832;8.732;2023-05-10T08:10:15;1.48;;;0.55;;
15944;SDS011;30172;48.832;8.732;2023-05-10T08:12:41;1.70;;;0.52;;
15944;SDS011;30172;48.832;8.732;2023-05-10T08:15:07;1.75;;;0.65;;
15944;SDS011;30172;48.832;8.732;2023-05-10T08:17:33;1.38;;;0.55;;
15944;SDS011;30172;48.832;8.732;2023-05-10T08:19:58;0.70;;;0.70;;
15944;SDS011;30172;48.832;8.732;2023-05-10T08:22:24;1.08;;;0.50;;
15944;SDS011;30172;48.832;8.732;2023-05-10T08:24:49;1.80;;;1.38;;
15944;SDS011;30172;48.832;8.732;2023-05-10T08:27:14;0.52;;;0.52;;
15944;SDS011;30172;48.832;8.732;2023-05-10T08:29:40;2.15;;;0.60;;
15944;SDS011;30172;48.832;8.732;2023-05-10T08:32:05;0.85;;;0.55;;
15944;SDS011;30172;48.832;8.732;2023-05-10T08:45:39;0.63;;;0.57;;
15944;SDS011;30172;48.832;8.732;2023-05-10T08:48:13;0.70;;;0.70;;
15944;SDS011;30172;48.832;8.732;2023-05-10T08:50:43;1.75;;;0.65;;
15944;SDS011;30172;48.832;8.732;2023-05-10T08:53:41;1.02;;;0.70;;
15944;SDS011;30172;48.832;8.732;2023-05-10T08:56:13;0.60;;;0.60;;
15944;SDS011;30172;48.832;8.732;2023-05-10T09:01:40;1.90;;;0.63;;
15944;SDS011;30172;48.832;8.732;2023-05-10T09:07:35;3.92;;;0.70;;
15944;SDS011;30172;48.832;8.732;2023-05-10T09:10:09;0.52;;;0.52;;
15944;SDS011;30172;48.832;8.732;2023-05-10T09:12:46;3.63;;;0.75;;
15944;SDS011;30172;48.832;8.732;2023-05-10T09:22:28;0.98;;;0.68;;
15944;SDS011;30172;48.832;8.732;2023-05-10T09:25:26;1.30;;;0.70;;
15944;SDS011;30172;48.832;8.732;2023-05-10T09:28:17;1.05;;;0.57;;
15944;SDS011;30172;48.832;8.732;2023-05-10T09:30:52;0.50;;;0.50;;
15944;SDS011;30172;48.832;8.732;2023-05-10T09:33:55;1.55;;;0.80;;
15944;SDS011;30172;48.832;8.732;2023-05-10T09:36:23;1.77;;;0.57;;
15944;SDS011;30172;48.832;8.732;2023-05-10T09:55:55;0.75;;;0.63;;
15944;SDS011;30172;48.832;8.732;2023-05-10T09:59:02;0.60;;;0.60;;
15944;SDS011;30172;48.832;8.732;2023-05-10T10:01:38;0.60;;;0.50;;
15944;SDS011;30172;48.832;8.732;2023-05-10T10:07:33;0.68;;;0.60;;
15944;SDS011;30172;48.832;8.732;2023-05-10T10:10:00;1.65;;;0.80;;
15944;SDS011;30172;48.832;8.732;2023-05-10T10:12:54;3.37;;;0.63;;
15944;SDS011;30172;48.832;8.732;2023-05-10T10:19:07;2.05;;;0.60;;
15944;SDS011;30172;48.832;8.732;2023-05-10T10:21:59;2.17;;;0.80;;
15944;SDS011;30172;48.832;8.732;2023-05-10T10:24:40;0.88;;;0.80;;
15944;SDS011;30172;48.832;8.732;2023-05-10T10:30:09;0.65;;;0.60;;
15944;SDS011;30172;48.832;8.732;2023-05-10T10:40:30;1.73;;;0.82;;
15944;SDS011;30172;48.832;8.732;2023-05-10T10:46:43;2.28;;;0.75;;
15944;SDS011;30172;48.832;8.732;2023-05-10T11:11:19;1.90;;;0.98;;
15944;SDS011;30172;48.832;8.732;2023-05-10T11:14:02;1.35;;;0.82;;
15944;SDS011;30172;48.832;8.732;2023-05-10T11:50:06;3.28;;;0.80;;
15944;SDS011;30172;48.832;8.732;2023-05-10T12:23:29;1.88;;;0.80;;
15944;SDS011;30172;48.832;8.732;2023-05-10T12:26:12;2.35;;;0.80;;
15944;SDS011;30172;48.832;8.732;2023-05-10T12:33:01;1.85;;;1.20;;
15944;SDS011;30172;48.832;8.732;2023-05-10T12:35:50;3.70;;;1.35;;
15944;SDS011;30172;48.832;8.732;2023-05-10T12:49:24;1.42;;;1.00;;
15944;SDS011;30172;48.832;8.732;2023-05-10T12:59:11;3.40;;;0.75;;
15944;SDS011;30172;48.832;8.732;2023-05-10T13:01:37;1.75;;;0.70;;
15944;SDS011;30172;48.832;8.732;2023-05-10T13:06:53;3.40;;;1.30;;
15944;SDS011;30172;48.832;8.732;2023-05-10T13:09:23;3.90;;;0.90;;
15944;SDS011;30172;48.832;8.732;2023-05-10T13:12:30;4.30;;;0.80;;
15944;SDS011;30172;48.832;8.732;2023-05-10T13:14:42;1.45;;;0.90;;
15944;SDS011;30172;48.832;8.732;2023-05-10T13:17:07;2.85;;;0.90;;
15944;SDS011;30172;48.832;8.732;2023-05-10T13:19:33;0.93;;;0.77;;
15944;SDS011;30172;48.832;8.732;2023-05-10T13:21:58;3.90;;;1.10;;
15944;SDS011;30172;48.832;8.732;2023-05-10T13:24:23;1.10;;;0.75;;
15944;SDS011;30172;48.832;8.732;2023-05-10T13:27:06;1.95;;;0.82;;
15944;SDS011;30172;48.832;8.732;2023-05-10T13:29:31;1.35;;;1.00;;
15944;SDS011;30172;48.832;8.732;2023-05-10T13:31:57;5.03;;;1.10;;
15944;SDS011;30172;48.832;8.732;2023-05-10T13:34:22;1.52;;;0.70;;
15944;SDS011;30172;48.832;8.732;2023-05-10T13:36:47;1.33;;;0.70;;
15944;SDS011;30172;48.832;8.732;2023-05-10T13:39:13;1.48;;;0.77;;
15944;SDS011;30172;48.832;8.732;2023-05-10T13:41:39;4.40;;;0.80;;
15944;SDS011;30172;48.832;8.732;2023-05-10T13:44:04;1.58;;;0.80;;
15944;SDS011;30172;48.832;8.732;2023-05-10T13:46:29;0.80;;;0.80;;
15944;SDS011;30172;48.832;8.732;2023-05-10T13:48:55;1.27;;;0.95;;
15944;SDS011;30172;48.832;8.732;2023-05-10T13:51:24;2.70;;;0.73;;
15944;SDS011;30172;48.832;8.732;2023-05-10T13:53:56;4.53;;;1.30;;
15944;SDS011;30172;48.832;8.732;2023-05-10T15:58:57;1.90;;;0.90;;
15944;SDS011;30172;48.832;8.732;2023-05-10T16:01:22;0.60;;;0.50;;
15944;SDS011;30172;48.832;8.732;2023-05-10T16:03:48;2.35;;;0.70;;
15944;SDS011;30172;48.832;8.732;2023-05-10T16:06:13;1.83;;;0.60;;
15944;SDS011;30172;48.832;8.732;2023-05-10T16:08:41;2.00;;;1.08;;
15944;SDS011;30172;48.832;8.732;2023-05-10T16:11:06;1.10;;;0.68;;
15944;SDS011;30172;48.832;8.732;2023-05-10T16:13:31;1.35;;;0.60;;
15944;SDS011;30172;48.832;8.732;2023-05-10T16:15:57;1.85;;;0.80;;
15944;SDS011;30172;48.832;8.732;2023-05-10T16:18:22;3.78;;;1.00;;
15944;SDS011;30172;48.832;8.732;2023-05-10T16:20:48;2.33;;;0.70;;
15944;SDS011;30172;48.832;8.732;2023-05-10T16:23:13;0.77;;;0.73;;
15944;SDS011;30172;48.832;8.732;2023-05-10T16:25:39;2.17;;;0.88;;
15944;SDS011;30172;48.832;8.732;2023-05-10T16:28:04;3.65;;;1.33;;
15944;SDS011;30172;48.832;8.732;2023-05-10T16:30:31;0.95;;;0.70;;
15944;SDS011;30172;48.832;8.732;2023-05-10T16:32:56;2.13;;;0.80;;
15944;SDS011;30172;48.832;8.732;2023-05-10T16:35:22;1.85;;;0.60;;
15944;SDS011;30172;48.832;8.732;2023-05-10T16:37:55;0.95;;;0.70;;
15944;SDS011;30172;48.832;8.732;2023-05-10T16:40:21;2.00;;;0.90;;
15944;SDS011;30172;48.832;8.732;2023-05-10T16:42:47;2.83;;;0.80;;
15944;SDS011;30172;48.832;8.732;2023-05-10T16:45:13;0.90;;;0.70;;
15944;SDS011;30172;48.832;8.732;2023-05-10T16:47:40;2.35;;;0.80;;
15944;SDS011;30172;48.832;8.732;2023-05-10T16:50:06;2.42;;;0.80;;
15944;SDS011;30172;48.832;8.732;2023-05-10T16:52:34;1.08;;;0.82;;
15944;SDS011;30172;48.832;8.732;2023-05-10T16:55:00;2.33;;;0.80;;
15944;SDS011;30172;48.832;8.732;2023-05-10T16:57:26;0.77;;;0.77;;
15944;SDS011;30172;48.832;8.732;2023-05-10T16:59:51;1.40;;;0.80;;
15944;SDS011;30172;48.832;8.732;2023-05-10T17:02:22;1.67;;;1.05;;
15944;SDS011;30172;48.832;8.732;2023-05-10T17:04:48;3.67;;;1.30;;
15944;SDS011;30172;48.832;8.732;2023-05-10T17:07:14;3.38;;;1.13;;
15944;SDS011;30172;48.832;8.732;2023-05-10T17:09:40;2.08;;;1.02;;
15944;SDS011;30172;48.832;8.732;2023-05-10T17:12:06;2.85;;;1.40;;
15944;SDS011;30172;48.832;8.732;2023-05-10T17:14:32;2.05;;;0.98;;
15944;SDS011;30172;48.832;8.732;2023-05-10T17:16:57;0.60;;;0.60;;
15944;SDS011;30172;48.832;8.732;2023-05-10T17:19:22;1.67;;;0.57;;
15944;SDS011;30172;48.832;8.732;2023-05-10T17:21:48;1.48;;;0.93;;
15944;SDS011;30172;48.832;8.732;2023-05-10T17:24:13;1.00;;;0.85;;
15944;SDS011;30172;48.832;8.732;2023-05-10T17:26:39;0.77;;;0.77;;
15944;SDS011;30172;48.832;8.732;2023-05-10T17:29:05;1.30;;;1.20;;
15944;SDS011;30172;48.832;8.732;2023-05-10T17:31:30;1.80;;;1.17;;
15944;SDS011;30172;48.832;8.732;2023-05-10T17:33:57;3.28;;;1.05;;
15944;SDS011;30172;48.832;8.732;2023-05-10T17:36:22;3.28;;;0.90;;
15944;SDS011;30172;48.832;8.732;2023-05-10T17:38:48;3.22;;;1.13;;
15944;SDS011;30172;48.832;8.732;2023-05-10T17:41:14;1.20;;;1.00;;
15944;SDS011;30172;48.832;8.732;2023-05-10T17:43:39;1.65;;;1.05;;
15944;SDS011;30172;48.832;8.732;2023-05-10T17:46:05;1.10;;;0.70;;
15944;SDS011;30172;48.832;8.732;2023-05-10T17:48:30;0.80;;;0.80;;
15944;SDS011;30172;48.832;8.732;2023-05-10T17:50:55;1.20;;;0.97;;
15944;SDS011;30172;48.832;8.732;2023-05-10T17:53:24;1.13;;;0.60;;
15944;SDS011;30172;48.832;8.732;2023-05-10T17:55:59;15.87;;;1.20;;
15944;SDS011;30172;48.832;8.732;2023-05-10T17:58:30;1.03;;;0.73;;
15944;SDS011;30172;48.832;8.732;2023-05-10T18:00:55;1.50;;;0.50;;
15944;SDS011;30172;48.832;8.732;2023-05-10T18:03:21;0.60;;;0.60;;
15944;SDS011;30172;48.832;8.732;2023-05-10T18:05:46;0.60;;;0.60;;
15944;SDS011;30172;48.832;8.732;2023-05-10T18:08:12;2.70;;;1.20;;
15944;SDS011;30172;48.832;8.732;2023-05-10T18:10:37;1.80;;;1.20;;
15944;SDS011;30172;48.832;8.732;2023-05-10T18:13:03;2.47;;;0.57;;
15944;SDS011;30172;48.832;8.732;2023-05-10T18:15:29;2.47;;;1.10;;
15944;SDS011;30172;48.832;8.732;2023-05-10T18:17:55;23.93;;;19.13;;
15944;SDS011;30172;48.832;8.732;2023-05-10T18:20:21;26.10;;;20.43;;
15944;SDS011;30172;48.832;8.732;2023-05-10T18:22:46;18.90;;;13.63;;
15944;SDS011;30172;48.832;8.732;2023-05-10T18:25:11;6.90;;;4.73;;
15944;SDS011;30172;48.832;8.732;2023-05-10T18:27:37;107.67;;;47.67;;
15944;SDS011;30172;48.832;8.732;2023-05-10T18:30:02;27.10;;;13.73;;
15944;SDS011;30172;48.832;8.732;2023-05-10T18:32:28;6.13;;;3.83;;
15944;SDS011;30172;48.832;8.732;2023-05-10T18:34:54;30.43;;;13.97;;
15944;SDS011;30172;48.832;8.732;2023-05-10T18:37:20;56.93;;;24.57;;
15944;SDS011;30172;48.832;8.732;2023-05-10T18:39:45;23.17;;;9.90;;
15944;SDS011;30172;48.832;8.732;2023-05-10T18:42:12;31.47;;;12.43;;
15944;SDS011;30172;48.832;8.732;2023-05-10T18:44:37;1.63;;;1.20;;
15944;SDS011;30172;48.832;8.732;2023-05-10T18:47:03;8.70;;;3.20;;
15944;SDS011;30172;48.832;8.732;2023-05-10T18:49:28;42.23;;;14.70;;
15944;SDS011;30172;48.832;8.732;2023-05-10T18:51:53;36.77;;;14.63;;
15944;SDS011;30172;48.832;8.732;2023-05-10T18:54:19;187.07;;;64.47;;
15944;SDS011;30172;48.832;8.732;2023-05-10T18:56:44;136.63;;;49.43;;
15944;SDS011;30172;48.832;8.732;2023-05-10T18:59:10;72.03;;;29.00;;
15944;SDS011;30172;48.832;8.732;2023-05-10T19:01:36;14.67;;;6.50;;
15944;SDS011;30172;48.832;8.732;2023-05-10T19:04:01;6.10;;;3.93;;
15944;SDS011;30172;48.832;8.732;2023-05-10T19:06:27;19.47;;;10.53;;
15944;SDS011;30172;48.832;8.732;2023-05-10T19:08:53;68.40;;;33.27;;
15944;SDS011;30172;48.832;8.732;2023-05-10T19:11:19;52.67;;;24.10;;
15944;SDS011;30172;48.832;8.732;2023-05-10T19:13:45;32.97;;;20.70;;
15944;SDS011;30172;48.832;8.732;2023-05-10T19:16:11;21.87;;;14.67;;
15944;SDS011;30172;48.832;8.732;2023-05-10T19:18:40;31.33;;;20.23;;
15944;SDS011;30172;48.832;8.732;2023-05-10T19:21:17;25.40;;;18.90;;
15944;SDS011;30172;48.832;8.732;2023-05-10T19:23:43;16.10;;;12.17;;
15944;SDS011;30172;48.832;8.732;2023-05-10T19:26:12;14.50;;;11.43;;
15944;SDS011;30172;48.832;8.732;2023-05-10T19:28:41;6.87;;;5.20;;
15944;SDS011;30172;48.832;8.732;2023-05-10T19:31:29;4.43;;;3.00;;
15944;SDS011;30172;48.832;8.732;2023-05-10T19:33:55;5.57;;;4.07;;
15944;SDS011;30172;48.832;8.732;2023-05-10T19:36:23;3.03;;;2.40;;
15944;SDS011;30172;48.832;8.732;2023-05-10T19:38:59;2.50;;;1.90;;
15944;SDS011;30172;48.832;8.732;2023-05-10T19:41:32;3.50;;;2.00;;
15944;SDS011;30172;48.832;8.732;2023-05-10T19:44:06;4.57;;;2.20;;
15944;SDS011;30172;48.832;8.732;2023-05-10T19:46:43;1.70;;;1.20;;
15944;SDS011;30172;48.832;8.732;2023-05-10T19:49:10;4.57;;;1.00;;
15944;SDS011;30172;48.832;8.732;2023-05-10T19:51:36;2.80;;;1.73;;
15944;SDS011;30172;48.832;8.732;2023-05-10T19:54:04;2.60;;;2.00;;
15944;SDS011;30172;48.832;8.732;2023-05-10T19:56:32;5.60;;;3.73;;
15944;SDS011;30172;48.832;8.732;2023-05-10T19:58:58;5.13;;;2.63;;
15944;SDS011;30172;48.832;8.732;2023-05-10T20:01:24;1.90;;;1.30;;
15944;SDS011;30172;48.832;8.732;2023-05-10T20:03:49;1.90;;;0.90;;
15944;SDS011;30172;48.832;8.732;2023-05-10T20:06:21;6.13;;;4.40;;
15944;SDS011;30172;48.832;8.732;2023-05-10T20:08:51;5.90;;;3.70;;
15944;SDS011;30172;48.832;8.732;2023-05-10T20:11:19;7.60;;;4.30;;
15944;SDS011;30172;48.832;8.732;2023-05-10T20:13:50;4.60;;;3.67;;
15944;SDS011;30172;48.832;8.732;2023-05-10T20:16:16;4.50;;;3.60;;
15944;SDS011;30172;48.832;8.732;2023-05-10T20:18:42;5.73;;;3.50;;
15944;SDS011;30172;48.832;8.732;2023-05-10T20:21:11;6.40;;;4.37;;
15944;SDS011;30172;48.832;8.732;2023-05-10T20:23:39;5.60;;;3.77;;
15944;SDS011;30172;48.832;8.732;2023-05-10T20:26:42;5.97;;;2.63;;
15944;SDS011;30172;48.832;8.732;2023-05-10T20:29:23;4.83;;;3.20;;
15944;SDS011;30172;48.832;8.732;2023-05-10T20:31:54;5.17;;;3.43;;
15944;SDS011;30172;48.832;8.732;2023-05-10T20:34:27;2.50;;;1.80;;
15944;SDS011;30172;48.832;8.732;2023-05-10T20:37:16;2.47;;;1.10;;
15944;SDS011;30172;48.832;8.732;2023-05-10T20:39:51;1.47;;;0.70;;
15944;SDS011;30172;48.832;8.732;2023-05-10T20:42:30;2.03;;;0.90;;
15944;SDS011;30172;48.832;8.732;2023-05-10T20:44:58;3.57;;;1.10;;